createdAt,value
2018-03-23T00:00:36.772Z,21.80
2018-03-23T00:03:04.592Z,21.80
2018-03-23T00:05:32.100Z,21.80
2018-03-23T00:07:59.549Z,21.70
2018-03-23T00:10:27.441Z,21.70
2018-03-23T00:12:55.075Z,21.70
2018-03-23T00:15:22.644Z,21.70
2018-03-23T00:17:50.091Z,21.70
2018-03-23T00:20:17.551Z,21.70
2018-03-23T00:22:45.007Z,21.70
2018-03-23T00:25:12.778Z,21.70
2018-03-23T00:27:40.256Z,21.60
2018-03-23T00:30:07.708Z,21.70
2018-03-23T00:32:35.453Z,21.60
2018-03-23T00:35:02.959Z,21.60
2018-03-23T00:37:30.548Z,21.60
2018-03-23T00:39:58.029Z,21.60
2018-03-23T00:42:25.888Z,21.60
2018-03-23T00:44:53.382Z,21.60
2018-03-23T00:47:20.836Z,21.60
2018-03-23T00:49:48.296Z,21.60
2018-03-23T00:52:16.093Z,21.60
2018-03-23T00:54:43.549Z,21.60
2018-03-23T00:57:11.116Z,21.60
2018-03-23T00:59:38.859Z,21.50
2018-03-23T01:02:06.387Z,21.50
2018-03-23T01:04:33.836Z,21.50
2018-03-23T01:07:01.384Z,21.50
2018-03-23T01:09:29.143Z,21.50
2018-03-23T01:11:56.612Z,21.50
2018-03-23T01:14:24.168Z,21.50
2018-03-23T01:16:51.721Z,21.50
2018-03-23T01:19:19.276Z,21.40
2018-03-23T01:21:47.045Z,21.40
2018-03-23T01:24:14.495Z,21.40
2018-03-23T01:26:41.939Z,21.40
2018-03-23T01:29:09.427Z,21.40
2018-03-23T01:31:36.876Z,21.40
2018-03-23T01:34:04.323Z,21.30
2018-03-23T01:36:31.939Z,21.40
2018-03-23T01:38:59.545Z,21.40
2018-03-23T01:41:27.017Z,21.30
2018-03-23T01:43:54.771Z,21.30
2018-03-23T01:46:22.404Z,21.40
2018-03-23T01:48:49.884Z,21.40
2018-03-23T01:51:17.399Z,21.40
2018-03-23T01:53:44.899Z,21.30
2018-03-23T01:56:12.681Z,21.30
2018-03-23T01:58:40.155Z,21.30
2018-03-23T02:01:07.815Z,21.30
2018-03-23T02:03:35.344Z,21.40
2018-03-23T02:06:02.984Z,21.30
2018-03-23T02:08:30.469Z,21.30
2018-03-23T02:10:57.951Z,21.30
2018-03-23T02:13:26.176Z,21.30
2018-03-23T02:15:53.627Z,21.30
2018-03-23T02:18:21.471Z,21.30
2018-03-23T02:20:48.916Z,21.30
2018-03-23T02:23:16.372Z,21.30
2018-03-23T02:25:43.900Z,21.30
2018-03-23T02:28:11.352Z,21.30
2018-03-23T02:33:21.119Z,21.30
2018-03-23T02:35:48.576Z,21.20
2018-03-23T02:38:16.046Z,21.20
2018-03-23T02:40:43.788Z,21.30
2018-03-23T02:43:11.554Z,21.30
2018-03-23T02:45:39.311Z,21.30
2018-03-23T02:48:06.782Z,21.30
2018-03-23T02:50:34.251Z,21.20
2018-03-23T02:53:02.005Z,21.30
2018-03-23T02:55:29.451Z,21.30
2018-03-23T02:57:56.895Z,21.20
2018-03-23T03:00:24.420Z,21.30
2018-03-23T03:02:52.129Z,21.30
2018-03-23T03:05:19.593Z,21.30
2018-03-23T03:07:47.356Z,21.30
2018-03-23T03:10:15.045Z,21.30
2018-03-23T03:12:42.496Z,21.30
2018-03-23T03:15:09.952Z,21.20
2018-03-23T03:17:37.403Z,21.20
2018-03-23T03:20:05.152Z,21.20
2018-03-23T03:22:32.710Z,21.30
2018-03-23T03:25:00.328Z,21.20
2018-03-23T03:27:27.837Z,21.30
2018-03-23T03:29:56.052Z,21.30
2018-03-23T03:32:23.517Z,21.30
2018-03-23T03:34:51.220Z,21.30
2018-03-23T03:37:18.975Z,21.30
2018-03-23T03:39:46.434Z,21.30
2018-03-23T03:42:14.200Z,21.30
2018-03-23T03:44:41.741Z,21.30
2018-03-23T03:47:09.187Z,21.20
2018-03-23T03:49:36.675Z,21.20
2018-03-23T03:52:04.323Z,21.30
2018-03-23T03:54:31.792Z,21.30
2018-03-23T03:56:59.560Z,21.30
2018-03-23T03:59:27.003Z,21.30
2018-03-23T04:01:54.492Z,21.20
2018-03-23T04:04:22.167Z,21.30
2018-03-23T04:06:49.620Z,21.20
2018-03-23T04:09:17.072Z,21.20
2018-03-23T04:11:44.876Z,21.20
2018-03-23T04:14:12.377Z,21.20
2018-03-23T04:16:39.953Z,21.20
2018-03-23T04:19:08.359Z,21.30
2018-03-23T04:21:35.972Z,21.20
2018-03-23T04:24:03.739Z,21.20
2018-03-23T04:26:31.196Z,21.20
2018-03-23T04:28:58.648Z,21.20
2018-03-23T04:31:26.324Z,21.20
2018-03-23T04:33:53.864Z,21.20
2018-03-23T04:36:21.319Z,21.20
2018-03-23T04:38:48.976Z,21.20
2018-03-23T04:41:16.420Z,21.20
2018-03-23T04:43:44.056Z,21.30
2018-03-23T04:46:11.660Z,21.30
2018-03-23T04:48:39.113Z,21.20
2018-03-23T04:51:06.984Z,21.20
2018-03-23T04:53:34.463Z,21.20
2018-03-23T04:56:01.919Z,21.20
2018-03-23T04:58:29.412Z,21.30
2018-03-23T05:00:56.864Z,21.20
2018-03-23T05:03:24.387Z,21.30
2018-03-23T05:05:52.049Z,21.30
2018-03-23T05:08:19.499Z,21.30
2018-03-23T05:10:46.952Z,21.30
2018-03-23T05:13:14.727Z,21.30
2018-03-23T05:15:42.176Z,21.30
2018-03-23T05:18:09.931Z,21.30
2018-03-23T05:20:37.424Z,21.30
2018-03-23T05:23:05.079Z,21.30
2018-03-23T05:25:32.532Z,21.30
2018-03-23T05:28:00.044Z,21.30
2018-03-23T05:30:27.496Z,21.30
2018-03-23T05:32:55.165Z,21.30
2018-03-23T05:35:22.764Z,21.40
2018-03-23T05:37:50.214Z,21.30
2018-03-23T05:40:17.686Z,21.30
2018-03-23T05:42:45.260Z,21.30
2018-03-23T05:45:12.771Z,21.20
2018-03-23T05:47:40.356Z,21.30
2018-03-23T05:50:07.826Z,21.20
2018-03-23T05:52:35.556Z,21.20
2018-03-23T05:55:03.018Z,21.30
2018-03-23T05:57:30.468Z,21.30
2018-03-23T05:59:57.929Z,21.20
2018-03-23T06:02:25.699Z,21.20
2018-03-23T06:04:53.155Z,21.20
2018-03-23T06:07:20.627Z,21.20
2018-03-23T06:09:48.376Z,21.20
2018-03-23T06:12:16.039Z,21.20
2018-03-23T06:14:43.488Z,21.20
2018-03-23T06:17:11.353Z,21.20
2018-03-23T06:19:38.806Z,21.10
2018-03-23T06:22:07.792Z,21.20
2018-03-23T06:24:35.572Z,21.10
2018-03-23T06:27:03.024Z,21.30
2018-03-23T06:29:30.476Z,21.60
2018-03-23T06:31:58.256Z,21.60
2018-03-23T06:34:25.704Z,21.30
2018-03-23T06:36:53.189Z,21.20
2018-03-23T06:39:20.931Z,21.50
2018-03-23T06:41:48.404Z,21.50
2018-03-23T06:44:16.144Z,21.40
2018-03-23T06:46:43.913Z,21.50
2018-03-23T06:49:11.368Z,21.50
2018-03-23T06:51:38.820Z,21.60
2018-03-23T06:54:06.295Z,21.60
2018-03-23T06:56:33.814Z,21.60
2018-03-23T06:59:01.290Z,21.70
2018-03-23T07:01:28.961Z,22.20
2018-03-23T07:03:56.438Z,22.70
2018-03-23T07:06:23.967Z,22.70
2018-03-23T07:08:51.789Z,23.00
2018-03-23T07:11:19.318Z,21.80
2018-03-23T07:13:46.772Z,21.90
2018-03-23T07:16:15.108Z,23.30
2018-03-23T07:18:42.560Z,23.30
2018-03-23T07:21:10.082Z,23.50
2018-03-23T07:23:37.916Z,24.00
2018-03-23T07:26:05.547Z,24.10
2018-03-23T07:28:33.002Z,24.10
2018-03-23T07:31:00.598Z,23.70
2018-03-23T07:33:28.375Z,23.60
2018-03-23T07:35:55.833Z,23.40
2018-03-23T07:38:23.582Z,23.30
2018-03-23T07:40:51.028Z,23.20
2018-03-23T07:43:18.484Z,23.20
2018-03-23T07:45:46.248Z,23.20
2018-03-23T07:48:13.711Z,23.10
2018-03-23T07:50:41.155Z,23.10
2018-03-23T07:53:08.608Z,23.10
2018-03-23T07:55:36.056Z,23.10
2018-03-23T07:58:03.517Z,23.00
2018-03-23T08:00:31.453Z,22.90
2018-03-23T08:02:58.988Z,22.90
2018-03-23T08:05:26.436Z,22.90
2018-03-23T08:07:54.293Z,22.80
2018-03-23T08:10:21.744Z,22.80
2018-03-23T08:12:49.212Z,22.70
2018-03-23T08:15:16.788Z,22.70
2018-03-23T08:17:45.200Z,22.60
2018-03-23T08:20:12.656Z,22.60
2018-03-23T08:22:40.119Z,22.50
2018-03-23T08:25:07.658Z,22.50
2018-03-23T08:27:35.235Z,22.40
2018-03-23T08:30:02.691Z,22.30
2018-03-23T08:32:30.396Z,22.30
2018-03-23T08:34:58.152Z,22.30
2018-03-23T08:37:25.603Z,22.30
2018-03-23T08:39:53.078Z,22.30
2018-03-23T08:42:20.556Z,22.20
2018-03-23T08:44:48.036Z,22.20
2018-03-23T08:47:15.467Z,22.30
2018-03-23T08:49:43.200Z,22.20
2018-03-23T08:52:10.652Z,22.20
2018-03-23T08:54:38.100Z,22.20
2018-03-23T08:57:05.580Z,22.10
2018-03-23T08:59:33.047Z,22.10
2018-03-23T09:02:00.514Z,22.10
2018-03-23T09:04:28.273Z,22.10
2018-03-23T09:06:55.913Z,22.00
2018-03-23T09:09:23.381Z,22.00
2018-03-23T09:11:52.008Z,22.00
2018-03-23T09:14:19.520Z,22.00
2018-03-23T09:16:47.752Z,21.90
2018-03-23T09:19:15.452Z,21.90
2018-03-23T09:21:42.900Z,21.90
2018-03-23T09:24:10.365Z,21.80
2018-03-23T09:26:38.124Z,21.80
2018-03-23T09:29:05.601Z,22.30
2018-03-23T09:31:33.367Z,21.80
2018-03-23T09:34:00.815Z,21.70
2018-03-23T09:36:28.274Z,21.70
2018-03-23T09:38:56.034Z,21.70
2018-03-23T09:41:23.699Z,21.70
2018-03-23T09:43:51.197Z,21.60
2018-03-23T09:46:18.759Z,21.60
2018-03-23T09:48:46.267Z,21.60
2018-03-23T09:51:13.925Z,21.50
2018-03-23T09:53:41.692Z,21.50
2018-03-23T09:56:09.224Z,21.50
2018-03-23T09:58:36.672Z,21.50
2018-03-23T10:01:04.723Z,21.50
2018-03-23T10:03:32.170Z,21.40
2018-03-23T10:05:59.629Z,21.40
2018-03-23T10:08:27.225Z,21.40
2018-03-23T10:10:54.799Z,21.90
2018-03-23T10:13:22.284Z,21.40
2018-03-23T10:15:49.739Z,21.40
2018-03-23T10:18:17.368Z,21.40
2018-03-23T10:20:44.922Z,21.30
2018-03-23T10:23:12.575Z,21.30
2018-03-23T10:25:40.037Z,21.30
2018-03-23T10:28:07.485Z,21.80
2018-03-23T10:30:34.936Z,21.30
2018-03-23T10:33:02.508Z,21.30
2018-03-23T10:35:29.965Z,21.30
2018-03-23T10:37:57.442Z,21.30
2018-03-23T10:40:25.204Z,21.20
2018-03-23T10:42:52.657Z,21.20
2018-03-23T10:45:20.108Z,21.30
2018-03-23T10:47:47.784Z,21.20
2018-03-23T10:50:15.235Z,21.20
2018-03-23T10:52:42.785Z,21.20
2018-03-23T10:55:10.330Z,21.20
2018-03-23T10:57:37.789Z,21.20
2018-03-23T11:00:05.257Z,21.20
2018-03-23T11:02:39.343Z,21.20
2018-03-23T11:05:07.011Z,21.10
2018-03-23T11:07:34.456Z,21.10
2018-03-23T11:10:02.079Z,21.10
2018-03-23T11:12:29.834Z,21.10
2018-03-23T11:14:57.600Z,21.10
2018-03-23T11:17:25.048Z,21.10
2018-03-23T11:19:52.543Z,21.10
2018-03-23T11:22:19.995Z,21.10
2018-03-23T11:24:47.724Z,21.10
2018-03-23T11:27:15.492Z,21.00
2018-03-23T11:29:42.949Z,21.00
2018-03-23T11:32:10.405Z,21.00
2018-03-23T11:34:38.163Z,21.00
2018-03-23T11:37:05.661Z,21.00
2018-03-23T11:39:33.095Z,21.00
2018-03-23T11:42:00.848Z,21.00
2018-03-23T11:44:28.628Z,21.00
2018-03-23T11:46:56.372Z,21.00
2018-03-23T11:49:24.192Z,21.00
2018-03-23T11:51:51.819Z,21.00
2018-03-23T11:54:19.271Z,21.00
2018-03-23T11:56:46.932Z,21.00
2018-03-23T11:59:15.143Z,20.90
2018-03-23T12:01:42.599Z,20.90
2018-03-23T12:04:10.236Z,20.90
2018-03-23T12:06:38.451Z,20.90
2018-03-23T12:09:06.251Z,20.90
2018-03-23T12:11:33.719Z,20.90
2018-03-23T12:14:01.492Z,20.90
2018-03-23T12:16:29.251Z,20.80
2018-03-23T12:18:56.703Z,20.80
2018-03-23T12:21:24.211Z,20.80
2018-03-23T12:23:51.704Z,20.80
2018-03-23T12:26:19.173Z,20.80
2018-03-23T12:28:46.826Z,20.70
2018-03-23T12:31:14.420Z,21.30
2018-03-23T12:33:41.869Z,20.70
2018-03-23T12:36:10.086Z,20.70
2018-03-23T12:38:37.583Z,20.70
2018-03-23T12:41:05.204Z,20.70
2018-03-23T12:43:32.666Z,20.70
2018-03-23T12:46:00.257Z,20.70
2018-03-23T12:48:27.708Z,20.70
2018-03-23T12:50:55.162Z,20.70
2018-03-23T12:53:22.727Z,20.70
2018-03-23T12:55:50.392Z,20.60
2018-03-23T12:58:17.853Z,20.70
2018-03-23T13:00:45.615Z,20.60
2018-03-23T13:03:13.232Z,20.70
2018-03-23T13:05:40.824Z,20.70
2018-03-23T13:08:08.419Z,20.70
2018-03-23T13:10:36.635Z,20.70
2018-03-23T13:13:04.098Z,20.70
2018-03-23T13:15:31.883Z,20.70
2018-03-23T13:17:59.336Z,20.70
2018-03-23T13:20:26.792Z,20.70
2018-03-23T13:22:54.239Z,20.70
2018-03-23T13:25:21.696Z,20.60
2018-03-23T13:27:49.224Z,20.60
2018-03-23T13:30:16.677Z,20.60
2018-03-23T13:32:44.708Z,20.60
2018-03-23T13:35:12.171Z,20.60
2018-03-23T13:37:39.922Z,20.60
2018-03-23T13:40:07.412Z,20.60
2018-03-23T13:42:34.865Z,20.60
2018-03-23T13:45:02.392Z,20.50
2018-03-23T13:47:30.063Z,20.50
2018-03-23T13:49:57.841Z,20.50
2018-03-23T13:52:25.280Z,20.50
2018-03-23T13:54:53.373Z,20.50
2018-03-23T13:57:20.832Z,20.50
2018-03-23T13:59:54.824Z,20.50
2018-03-23T14:02:23.055Z,20.50
2018-03-23T14:04:50.524Z,20.50
2018-03-23T14:10:00.095Z,20.50
2018-03-23T14:12:27.972Z,20.40
2018-03-23T14:14:55.430Z,20.40
2018-03-23T14:17:23.188Z,20.40
2018-03-23T14:19:50.652Z,20.40
2018-03-23T14:22:18.167Z,20.40
2018-03-23T14:24:45.882Z,20.40
2018-03-23T14:27:13.500Z,20.40
2018-03-23T14:29:40.959Z,20.40
2018-03-23T14:32:08.583Z,20.40
2018-03-23T14:34:36.036Z,20.40
2018-03-23T14:37:03.760Z,20.40
2018-03-23T14:39:31.520Z,20.40
2018-03-23T14:41:58.986Z,20.40
2018-03-23T14:44:26.459Z,20.40
2018-03-23T14:46:54.244Z,20.40
2018-03-23T14:49:21.680Z,20.40
2018-03-23T14:51:49.140Z,20.40
2018-03-23T14:54:16.808Z,20.40
2018-03-23T14:56:44.264Z,20.40
2018-03-23T14:59:15.641Z,20.30
2018-03-23T15:01:43.224Z,20.30
2018-03-23T15:04:10.683Z,20.30
2018-03-23T15:06:38.124Z,20.30
2018-03-23T15:09:05.929Z,20.30
2018-03-23T15:11:33.410Z,20.30
2018-03-23T15:14:13.132Z,20.30
2018-03-23T15:16:40.589Z,20.30
2018-03-23T15:19:08.040Z,20.30
2018-03-23T15:21:35.713Z,20.30
2018-03-23T15:24:03.180Z,20.30
2018-03-23T15:26:30.716Z,20.80
2018-03-23T15:28:58.297Z,20.40
2018-03-23T15:31:26.526Z,20.50
2018-03-23T15:33:53.984Z,20.50
2018-03-23T15:36:21.486Z,20.60
2018-03-23T15:38:48.936Z,20.50
2018-03-23T15:41:16.392Z,20.40
2018-03-23T15:43:43.873Z,20.40
2018-03-23T15:46:11.325Z,20.50
2018-03-23T15:48:38.952Z,20.50
2018-03-23T15:51:06.539Z,20.50
2018-03-23T15:53:33.976Z,20.50
2018-03-23T15:56:01.448Z,20.50
2018-03-23T15:58:28.908Z,20.60
2018-03-23T16:00:56.643Z,20.70
2018-03-23T16:03:24.262Z,20.70
2018-03-23T16:05:51.712Z,20.60
2018-03-23T16:08:19.196Z,20.60
2018-03-23T16:10:46.656Z,20.90
2018-03-23T16:13:14.175Z,20.80
2018-03-23T16:15:41.672Z,20.80
2018-03-23T16:18:09.161Z,20.70
2018-03-23T16:20:36.608Z,20.60
2018-03-23T16:23:04.377Z,20.70
2018-03-23T16:25:31.828Z,20.60
2018-03-23T16:27:59.463Z,20.60
2018-03-23T16:30:26.925Z,20.60
2018-03-23T16:32:54.453Z,20.60
2018-03-23T16:35:21.936Z,20.50
2018-03-23T16:37:49.444Z,20.60
2018-03-23T16:40:16.933Z,20.60
2018-03-23T16:42:44.495Z,20.60
2018-03-23T16:45:11.953Z,20.60
2018-03-23T16:47:39.405Z,20.60
2018-03-23T16:50:06.992Z,20.60
2018-03-23T16:52:34.447Z,20.60
2018-03-23T16:55:01.904Z,20.60
2018-03-23T16:57:29.404Z,20.60
2018-03-23T16:59:56.858Z,20.60
2018-03-23T17:09:07.661Z,20.60
2018-03-23T17:11:36.656Z,20.70
2018-03-23T17:14:04.111Z,20.60
2018-03-23T17:16:31.563Z,20.70
2018-03-23T17:18:59.132Z,20.70
2018-03-23T17:21:26.592Z,20.70
2018-03-23T17:23:54.816Z,20.70
2018-03-23T17:26:22.388Z,20.70
2018-03-23T17:28:49.839Z,20.70
2018-03-23T17:31:17.300Z,20.70
2018-03-23T17:33:44.988Z,20.70
2018-03-23T17:36:12.443Z,20.70
2018-03-23T17:38:39.897Z,20.80
2018-03-23T17:41:07.820Z,20.80
2018-03-23T17:43:35.441Z,20.90
2018-03-23T17:46:02.898Z,20.90
2018-03-23T17:48:30.358Z,21.00
2018-03-23T17:50:58.620Z,21.00
2018-03-23T17:53:27.045Z,21.20
2018-03-23T17:55:54.508Z,21.20
2018-03-23T17:58:21.961Z,21.30
2018-03-23T18:00:49.539Z,21.30
2018-03-23T18:03:16.999Z,21.40
2018-03-23T18:05:44.542Z,21.40
2018-03-23T18:08:12.032Z,20.80
2018-03-23T18:10:39.488Z,20.80
2018-03-23T18:13:06.948Z,21.10
2018-03-23T18:15:34.519Z,21.60
2018-03-23T18:18:01.984Z,21.80
2018-03-23T18:20:29.452Z,21.90
2018-03-23T18:22:57.023Z,21.70
2018-03-23T18:25:24.501Z,21.80
2018-03-23T18:27:51.955Z,21.80
2018-03-23T18:30:19.421Z,21.80
2018-03-23T18:32:46.972Z,21.80
2018-03-23T18:35:14.549Z,21.80
2018-03-23T18:37:42.004Z,21.80
2018-03-23T18:40:09.472Z,21.80
2018-03-23T18:42:37.096Z,21.20
2018-03-23T18:45:04.555Z,20.80
2018-03-23T18:47:32.145Z,20.90
2018-03-23T18:49:59.681Z,21.10
2018-03-23T18:52:27.247Z,21.20
2018-03-23T18:54:54.816Z,21.10
2018-03-23T18:57:22.271Z,21.20
2018-03-23T18:59:49.736Z,21.30
2018-03-23T19:02:17.313Z,21.20
2018-03-23T19:04:44.764Z,21.30
2018-03-23T19:07:12.220Z,21.70
2018-03-23T19:09:39.900Z,21.20
2018-03-23T19:12:07.360Z,21.20
2018-03-23T19:14:34.824Z,21.20
2018-03-23T19:17:02.307Z,21.10
2018-03-23T19:19:30.536Z,21.10
2018-03-23T19:21:57.992Z,21.10
2018-03-23T19:24:25.483Z,21.10
2018-03-23T19:26:52.944Z,21.10
2018-03-23T19:29:20.539Z,21.10
2018-03-23T19:31:48.761Z,21.10
2018-03-23T19:34:16.220Z,21.10
2018-03-23T19:36:43.712Z,21.10
2018-03-23T19:39:11.176Z,21.10
2018-03-23T19:41:38.824Z,21.50
2018-03-23T19:44:06.319Z,21.00
2018-03-23T19:46:33.790Z,21.00
2018-03-23T19:49:01.247Z,21.00
2018-03-23T19:51:30.352Z,21.40
2018-03-23T19:53:57.804Z,21.00
2018-03-23T19:56:25.271Z,21.00
2018-03-23T19:58:52.953Z,21.00
2018-03-23T20:01:20.440Z,21.00
2018-03-23T20:03:47.923Z,20.90
2018-03-23T20:06:15.460Z,21.00
2018-03-23T20:08:42.915Z,21.00
2018-03-23T20:11:10.377Z,20.30
2018-03-23T20:13:37.949Z,20.50
2018-03-23T20:16:05.406Z,20.60
2018-03-23T20:18:32.876Z,20.70
2018-03-23T20:21:03.374Z,20.80
2018-03-23T20:23:30.827Z,20.90
2018-03-23T20:25:58.277Z,20.90
2018-03-23T20:28:45.569Z,20.90
2018-03-23T20:31:13.049Z,20.90
2018-03-23T20:33:40.492Z,20.80
2018-03-23T20:36:08.898Z,20.80
2018-03-23T20:38:36.350Z,20.80
2018-03-23T20:41:03.809Z,20.80
2018-03-23T20:43:32.081Z,20.80
2018-03-23T20:45:59.528Z,20.80
2018-03-23T20:48:26.979Z,20.80
2018-03-23T20:50:54.543Z,20.70
2018-03-23T20:53:21.995Z,20.70
2018-03-23T20:55:50.220Z,20.70
2018-03-23T20:58:17.789Z,20.70
2018-03-23T21:00:45.235Z,20.70
2018-03-23T21:03:12.692Z,20.70
2018-03-23T21:05:40.259Z,20.70
2018-03-23T21:08:07.711Z,20.70
2018-03-23T21:10:35.176Z,20.70
2018-03-23T21:13:02.704Z,20.70
2018-03-23T21:15:30.160Z,20.60
2018-03-23T21:17:57.616Z,20.60
2018-03-23T21:20:25.200Z,20.60
2018-03-23T21:22:52.812Z,20.60
2018-03-23T21:25:20.276Z,20.60
2018-03-23T21:27:47.947Z,20.60
2018-03-23T21:30:15.402Z,20.60
2018-03-23T21:32:42.960Z,20.60
2018-03-23T21:35:10.535Z,20.60
2018-03-23T21:37:37.987Z,20.50
2018-03-23T21:40:05.448Z,20.60
2018-03-23T21:42:33.029Z,20.50
2018-03-23T21:45:00.476Z,20.60
2018-03-23T21:47:27.935Z,20.40
2018-03-23T21:49:55.512Z,20.50
2018-03-23T21:52:22.955Z,20.50
2018-03-23T21:54:50.411Z,20.50
2018-03-23T21:57:18.679Z,20.50
2018-03-23T21:59:46.144Z,20.60
2018-03-23T22:02:13.651Z,20.40
2018-03-23T22:04:41.139Z,20.50
2018-03-23T22:07:08.610Z,20.50
2018-03-23T22:09:36.063Z,20.50
2018-03-23T22:12:03.631Z,20.40
2018-03-23T22:14:31.092Z,20.50
2018-03-23T22:16:58.548Z,20.50
2018-03-23T22:19:26.036Z,20.50
2018-03-23T22:21:54.454Z,20.40
2018-03-23T22:24:21.899Z,20.40
2018-03-23T22:26:50.356Z,20.40
2018-03-23T22:29:18.580Z,20.40
2018-03-23T22:31:46.204Z,20.40
2018-03-23T22:34:13.778Z,20.40
2018-03-23T22:36:41.247Z,20.90
2018-03-23T22:39:08.708Z,20.40
2018-03-23T22:41:36.284Z,20.50
2018-03-23T22:44:03.736Z,20.50
2018-03-23T22:46:31.187Z,20.50
2018-03-23T22:48:58.756Z,20.50
2018-03-23T22:51:26.256Z,20.50
2018-03-23T22:53:53.712Z,20.50
2018-03-23T22:56:21.281Z,20.50
2018-03-23T22:58:49.533Z,20.50
2018-03-23T23:01:16.989Z,20.50
2018-03-23T23:03:44.561Z,20.50
2018-03-23T23:06:12.804Z,20.50
2018-03-23T23:08:40.252Z,20.50
2018-03-23T23:11:07.824Z,20.50
2018-03-23T23:13:35.423Z,20.50
2018-03-23T23:16:02.884Z,20.50
2018-03-23T23:18:31.131Z,20.50
2018-03-23T23:20:59.111Z,20.50
2018-03-23T23:23:26.579Z,20.50
2018-03-23T23:25:54.072Z,20.50
2018-03-23T23:28:21.528Z,20.50
2018-03-23T23:30:48.988Z,20.50
2018-03-23T23:33:16.564Z,20.50
2018-03-23T23:35:44.019Z,20.50
2018-03-23T23:38:11.472Z,20.50
2018-03-23T23:40:38.977Z,20.50
2018-03-23T23:43:06.428Z,20.50
2018-03-23T23:45:33.917Z,20.50
2018-03-23T23:48:01.469Z,20.50
2018-03-23T23:50:28.924Z,20.50
2018-03-23T23:52:56.381Z,20.50
2018-03-23T23:55:23.874Z,20.50
2018-03-23T23:57:51.326Z,20.50
